<?xml version="1.0" encoding="UTF-8" standalone="no" ?>
<gpx xmlns="http://www.topografix.com/GPX/1/1" xmlns:xsi="http://www.w3.org/2001/XMLSchema-instance" xsi:schemaLocation="http://www.topografix.com/GPX/1/1 http://www.topografix.com/GPX/1/1/gpx.xsd" version="1.1" creator="VisuGPX - https://www.visugpx.com">
  <metadata>
    <name>ARQUES LA SEYNE SUR MER 1497 KM</name>
    <desc><![CDATA[Rando de Arques dans le Pas de Calais jusque La Seyne sur Mer dans le Var, 1497 km]]></desc>
  </metadata>
  <trk>
    <name><![CDATA[7- ST QUENTIN TERGNIER 31.4 KM]]></name>
    <extensions>
      <line xmlns="http://www.topografix.com/GPX/gpx_style/0/2">
        <color>000088</color>
        <width>4</width>
      </line>
    </extensions>
    <trkseg>
      <trkpt lat="49.85469" lon="3.25928">
        <ele>81</ele>
        <time>2021-11-02T08:39:15+01:00</time>
      </trkpt>
      <trkpt lat="49.85436" lon="3.25955">
        <ele>81</ele>
        <time>2021-11-02T08:39:20+01:00</time>
      </trkpt>
      <trkpt lat="49.85373" lon="3.25654">
        <ele>82</ele>
        <time>2021-11-02T08:39:25+01:00</time>
      </trkpt>
      <trkpt lat="49.85198" lon="3.25366">
        <ele>92</ele>
        <time>2021-11-02T08:39:30+01:00</time>
      </trkpt>
      <trkpt lat="49.85192" lon="3.25249">
        <ele>94</ele>
        <time>2021-11-02T08:39:35+01:00</time>
      </trkpt>
      <trkpt lat="49.85096" lon="3.25007">
        <ele>99</ele>
        <time>2021-11-02T08:39:40+01:00</time>
      </trkpt>
      <trkpt lat="49.84945" lon="3.24786">
        <ele>112</ele>
        <time>2021-11-02T08:39:45+01:00</time>
      </trkpt>
      <trkpt lat="49.84681" lon="3.24717">
        <ele>115</ele>
        <time>2021-11-02T08:39:50+01:00</time>
      </trkpt>
      <trkpt lat="49.84422" lon="3.24715">
        <ele>114</ele>
        <time>2021-11-02T08:39:55+01:00</time>
      </trkpt>
      <trkpt lat="49.8456" lon="3.25686">
        <ele>112</ele>
        <time>2021-11-02T08:40:00+01:00</time>
      </trkpt>
      <trkpt lat="49.84348" lon="3.25788">
        <ele>114</ele>
        <time>2021-11-02T08:40:05+01:00</time>
      </trkpt>
      <trkpt lat="49.84218" lon="3.25722">
        <ele>115</ele>
        <time>2021-11-02T08:40:10+01:00</time>
      </trkpt>
      <trkpt lat="49.84119" lon="3.25832">
        <ele>116</ele>
        <time>2021-11-02T08:40:15+01:00</time>
      </trkpt>
      <trkpt lat="49.8399" lon="3.26216">
        <ele>108</ele>
        <time>2021-11-02T08:40:20+01:00</time>
      </trkpt>
      <trkpt lat="49.83766" lon="3.26647">
        <ele>89</ele>
        <time>2021-11-02T08:40:25+01:00</time>
      </trkpt>
      <trkpt lat="49.83731" lon="3.26661">
        <ele>87</ele>
        <time>2021-11-02T08:40:30+01:00</time>
      </trkpt>
      <trkpt lat="49.83662" lon="3.26822">
        <ele>80</ele>
        <time>2021-11-02T08:40:35+01:00</time>
      </trkpt>
      <trkpt lat="49.83599" lon="3.2684">
        <ele>78</ele>
        <time>2021-11-02T08:40:40+01:00</time>
      </trkpt>
      <trkpt lat="49.83502" lon="3.26848">
        <ele>73</ele>
        <time>2021-11-02T08:40:45+01:00</time>
      </trkpt>
      <trkpt lat="49.83469" lon="3.26694">
        <ele>73</ele>
        <time>2021-11-02T08:40:50+01:00</time>
      </trkpt>
      <trkpt lat="49.83429" lon="3.2661">
        <ele>73</ele>
        <time>2021-11-02T08:40:55+01:00</time>
      </trkpt>
      <trkpt lat="49.83281" lon="3.26504">
        <ele>72</ele>
        <time>2021-11-02T08:41:00+01:00</time>
      </trkpt>
      <trkpt lat="49.83104" lon="3.26267">
        <ele>74</ele>
        <time>2021-11-02T08:41:05+01:00</time>
      </trkpt>
      <trkpt lat="49.82967" lon="3.26168">
        <ele>72</ele>
        <time>2021-11-02T08:41:10+01:00</time>
      </trkpt>
      <trkpt lat="49.8283" lon="3.25905">
        <ele>75</ele>
        <time>2021-11-02T08:41:15+01:00</time>
      </trkpt>
      <trkpt lat="49.82774" lon="3.25967">
        <ele>73</ele>
        <time>2021-11-02T08:41:20+01:00</time>
      </trkpt>
      <trkpt lat="49.82729" lon="3.25803">
        <ele>73</ele>
        <time>2021-11-02T08:41:25+01:00</time>
      </trkpt>
      <trkpt lat="49.82632" lon="3.25532">
        <ele>74</ele>
        <time>2021-11-02T08:41:30+01:00</time>
      </trkpt>
      <trkpt lat="49.8235" lon="3.25291">
        <ele>74</ele>
        <time>2021-11-02T08:41:35+01:00</time>
      </trkpt>
      <trkpt lat="49.82265" lon="3.24729">
        <ele>75</ele>
        <time>2021-11-02T08:41:40+01:00</time>
      </trkpt>
      <trkpt lat="49.82093" lon="3.24444">
        <ele>73</ele>
        <time>2021-11-02T08:41:45+01:00</time>
      </trkpt>
      <trkpt lat="49.81758" lon="3.2429">
        <ele>78</ele>
        <time>2021-11-02T08:41:50+01:00</time>
      </trkpt>
      <trkpt lat="49.81511" lon="3.23768">
        <ele>74</ele>
        <time>2021-11-02T08:41:55+01:00</time>
      </trkpt>
      <trkpt lat="49.81263" lon="3.23567">
        <ele>76</ele>
        <time>2021-11-02T08:42:00+01:00</time>
      </trkpt>
      <trkpt lat="49.80952" lon="3.23092">
        <ele>73</ele>
        <time>2021-11-02T08:42:05+01:00</time>
      </trkpt>
      <trkpt lat="49.80777" lon="3.23015">
        <ele>72</ele>
        <time>2021-11-02T08:42:10+01:00</time>
      </trkpt>
      <trkpt lat="49.80702" lon="3.22877">
        <ele>72</ele>
        <time>2021-11-02T08:42:15+01:00</time>
      </trkpt>
      <trkpt lat="49.80598" lon="3.22716">
        <ele>70</ele>
        <time>2021-11-02T08:42:20+01:00</time>
      </trkpt>
      <trkpt lat="49.80532" lon="3.22537">
        <ele>70</ele>
        <time>2021-11-02T08:42:25+01:00</time>
      </trkpt>
      <trkpt lat="49.80237" lon="3.22259">
        <ele>73</ele>
        <time>2021-11-02T08:42:30+01:00</time>
      </trkpt>
      <trkpt lat="49.80098" lon="3.22208">
        <ele>71</ele>
        <time>2021-11-02T08:42:35+01:00</time>
      </trkpt>
      <trkpt lat="49.80006" lon="3.22058">
        <ele>72</ele>
        <time>2021-11-02T08:42:40+01:00</time>
      </trkpt>
      <trkpt lat="49.79959" lon="3.2185">
        <ele>73</ele>
        <time>2021-11-02T08:42:45+01:00</time>
      </trkpt>
      <trkpt lat="49.79954" lon="3.21602">
        <ele>73</ele>
        <time>2021-11-02T08:42:50+01:00</time>
      </trkpt>
      <trkpt lat="49.79877" lon="3.21302">
        <ele>72</ele>
        <time>2021-11-02T08:42:55+01:00</time>
      </trkpt>
      <trkpt lat="49.78931" lon="3.20959">
        <ele>72</ele>
        <time>2021-11-02T08:43:00+01:00</time>
      </trkpt>
      <trkpt lat="49.78598" lon="3.21138">
        <ele>72</ele>
        <time>2021-11-02T08:43:05+01:00</time>
      </trkpt>
      <trkpt lat="49.78518" lon="3.21079">
        <ele>72</ele>
        <time>2021-11-02T08:43:10+01:00</time>
      </trkpt>
      <trkpt lat="49.78488" lon="3.20955">
        <ele>71</ele>
        <time>2021-11-02T08:43:15+01:00</time>
      </trkpt>
      <trkpt lat="49.78157" lon="3.21214">
        <ele>72</ele>
        <time>2021-11-02T08:43:20+01:00</time>
      </trkpt>
      <trkpt lat="49.7802" lon="3.21141">
        <ele>70</ele>
        <time>2021-11-02T08:43:25+01:00</time>
      </trkpt>
      <trkpt lat="49.77936" lon="3.21211">
        <ele>72</ele>
        <time>2021-11-02T08:43:30+01:00</time>
      </trkpt>
      <trkpt lat="49.77683" lon="3.21536">
        <ele>89</ele>
        <time>2021-11-02T08:43:35+01:00</time>
      </trkpt>
      <trkpt lat="49.77568" lon="3.21788">
        <ele>87</ele>
        <time>2021-11-02T08:43:40+01:00</time>
      </trkpt>
      <trkpt lat="49.77464" lon="3.21916">
        <ele>77</ele>
        <time>2021-11-02T08:43:45+01:00</time>
      </trkpt>
      <trkpt lat="49.77317" lon="3.22106">
        <ele>75</ele>
        <time>2021-11-02T08:43:50+01:00</time>
      </trkpt>
      <trkpt lat="49.77136" lon="3.22376">
        <ele>83</ele>
        <time>2021-11-02T08:43:55+01:00</time>
      </trkpt>
      <trkpt lat="49.76987" lon="3.22632">
        <ele>89</ele>
        <time>2021-11-02T08:44:00+01:00</time>
      </trkpt>
      <trkpt lat="49.76725" lon="3.23136">
        <ele>91</ele>
        <time>2021-11-02T08:44:05+01:00</time>
      </trkpt>
      <trkpt lat="49.76605" lon="3.23249">
        <ele>92</ele>
        <time>2021-11-02T08:44:10+01:00</time>
      </trkpt>
      <trkpt lat="49.76513" lon="3.23421">
        <ele>92</ele>
        <time>2021-11-02T08:44:15+01:00</time>
      </trkpt>
      <trkpt lat="49.76305" lon="3.23614">
        <ele>90</ele>
        <time>2021-11-02T08:44:20+01:00</time>
      </trkpt>
      <trkpt lat="49.7598" lon="3.24162">
        <ele>85</ele>
        <time>2021-11-02T08:44:25+01:00</time>
      </trkpt>
      <trkpt lat="49.75592" lon="3.2379">
        <ele>84</ele>
        <time>2021-11-02T08:44:30+01:00</time>
      </trkpt>
      <trkpt lat="49.75312" lon="3.23574">
        <ele>84</ele>
        <time>2021-11-02T08:44:35+01:00</time>
      </trkpt>
      <trkpt lat="49.74927" lon="3.23534">
        <ele>78</ele>
        <time>2021-11-02T08:44:40+01:00</time>
      </trkpt>
      <trkpt lat="49.7474" lon="3.23541">
        <ele>75</ele>
        <time>2021-11-02T08:44:45+01:00</time>
      </trkpt>
      <trkpt lat="49.74618" lon="3.23614">
        <ele>74</ele>
        <time>2021-11-02T08:44:50+01:00</time>
      </trkpt>
      <trkpt lat="49.74544" lon="3.23454">
        <ele>73</ele>
        <time>2021-11-02T08:44:55+01:00</time>
      </trkpt>
      <trkpt lat="49.74497" lon="3.23238">
        <ele>73</ele>
        <time>2021-11-02T08:45:00+01:00</time>
      </trkpt>
      <trkpt lat="49.74433" lon="3.23224">
        <ele>71</ele>
        <time>2021-11-02T08:45:05+01:00</time>
      </trkpt>
      <trkpt lat="49.74382" lon="3.23165">
        <ele>71</ele>
        <time>2021-11-02T08:45:10+01:00</time>
      </trkpt>
      <trkpt lat="49.74424" lon="3.2307">
        <ele>75</ele>
        <time>2021-11-02T08:45:15+01:00</time>
      </trkpt>
      <trkpt lat="49.74256" lon="3.22782">
        <ele>74</ele>
        <time>2021-11-02T08:45:20+01:00</time>
      </trkpt>
      <trkpt lat="49.74167" lon="3.22522">
        <ele>72</ele>
        <time>2021-11-02T08:45:25+01:00</time>
      </trkpt>
      <trkpt lat="49.73931" lon="3.22741">
        <ele>68</ele>
        <time>2021-11-02T08:45:30+01:00</time>
      </trkpt>
      <trkpt lat="49.73973" lon="3.22891">
        <ele>67</ele>
        <time>2021-11-02T08:45:35+01:00</time>
      </trkpt>
      <trkpt lat="49.73839" lon="3.22979">
        <ele>67</ele>
        <time>2021-11-02T08:45:40+01:00</time>
      </trkpt>
      <trkpt lat="49.73789" lon="3.22807">
        <ele>68</ele>
        <time>2021-11-02T08:45:45+01:00</time>
      </trkpt>
      <trkpt lat="49.73659" lon="3.22822">
        <ele>67</ele>
        <time>2021-11-02T08:45:50+01:00</time>
      </trkpt>
      <trkpt lat="49.73125" lon="3.22957">
        <ele>74</ele>
        <time>2021-11-02T08:45:55+01:00</time>
      </trkpt>
      <trkpt lat="49.72781" lon="3.23238">
        <ele>71</ele>
        <time>2021-11-02T08:46:00+01:00</time>
      </trkpt>
      <trkpt lat="49.72547" lon="3.23355">
        <ele>70</ele>
        <time>2021-11-02T08:46:05+01:00</time>
      </trkpt>
      <trkpt lat="49.72348" lon="3.23366">
        <ele>71</ele>
        <time>2021-11-02T08:46:10+01:00</time>
      </trkpt>
      <trkpt lat="49.72311" lon="3.23428">
        <ele>70</ele>
        <time>2021-11-02T08:46:15+01:00</time>
      </trkpt>
      <trkpt lat="49.72332" lon="3.23753">
        <ele>71</ele>
        <time>2021-11-02T08:46:20+01:00</time>
      </trkpt>
      <trkpt lat="49.72287" lon="3.23848">
        <ele>72</ele>
        <time>2021-11-02T08:46:25+01:00</time>
      </trkpt>
      <trkpt lat="49.72098" lon="3.24016">
        <ele>72</ele>
        <time>2021-11-02T08:46:30+01:00</time>
      </trkpt>
      <trkpt lat="49.71994" lon="3.24586">
        <ele>77</ele>
        <time>2021-11-02T08:46:35+01:00</time>
      </trkpt>
      <trkpt lat="49.71968" lon="3.24955">
        <ele>78</ele>
        <time>2021-11-02T08:46:40+01:00</time>
      </trkpt>
      <trkpt lat="49.71992" lon="3.25529">
        <ele>76</ele>
        <time>2021-11-02T08:46:45+01:00</time>
      </trkpt>
      <trkpt lat="49.71841" lon="3.25507">
        <ele>76</ele>
        <time>2021-11-02T08:46:50+01:00</time>
      </trkpt>
      <trkpt lat="49.71805" lon="3.25423">
        <ele>74</ele>
        <time>2021-11-02T08:46:55+01:00</time>
      </trkpt>
      <trkpt lat="49.71456" lon="3.25448">
        <ele>69</ele>
        <time>2021-11-02T08:47:00+01:00</time>
      </trkpt>
      <trkpt lat="49.7138" lon="3.25514">
        <ele>69</ele>
        <time>2021-11-02T08:47:05+01:00</time>
      </trkpt>
      <trkpt lat="49.71101" lon="3.26201">
        <ele>64</ele>
        <time>2021-11-02T08:47:10+01:00</time>
      </trkpt>
      <trkpt lat="49.70986" lon="3.26427">
        <ele>69</ele>
        <time>2021-11-02T08:47:15+01:00</time>
      </trkpt>
      <trkpt lat="49.70771" lon="3.26745">
        <ele>64</ele>
        <time>2021-11-02T08:47:20+01:00</time>
      </trkpt>
      <trkpt lat="49.70437" lon="3.27202">
        <ele>67</ele>
        <time>2021-11-02T08:47:25+01:00</time>
      </trkpt>
      <trkpt lat="49.69944" lon="3.2718">
        <ele>65</ele>
        <time>2021-11-02T08:47:30+01:00</time>
      </trkpt>
      <trkpt lat="49.6984" lon="3.2722">
        <ele>64</ele>
        <time>2021-11-02T08:47:35+01:00</time>
      </trkpt>
      <trkpt lat="49.69204" lon="3.27976">
        <ele>60</ele>
        <time>2021-11-02T08:47:40+01:00</time>
      </trkpt>
      <trkpt lat="49.6892" lon="3.28349">
        <ele>58</ele>
        <time>2021-11-02T08:47:45+01:00</time>
      </trkpt>
      <trkpt lat="49.68762" lon="3.29035">
        <ele>56</ele>
        <time>2021-11-02T08:47:50+01:00</time>
      </trkpt>
      <trkpt lat="49.68592" lon="3.29164">
        <ele>55</ele>
        <time>2021-11-02T08:47:55+01:00</time>
      </trkpt>
      <trkpt lat="49.68162" lon="3.29001">
        <ele>57</ele>
        <time>2021-11-02T08:48:00+01:00</time>
      </trkpt>
      <trkpt lat="49.67709" lon="3.29164">
        <ele>61</ele>
        <time>2021-11-02T08:48:05+01:00</time>
      </trkpt>
      <trkpt lat="49.67359" lon="3.29413">
        <ele>59</ele>
        <time>2021-11-02T08:48:10+01:00</time>
      </trkpt>
      <trkpt lat="49.67209" lon="3.2952">
        <ele>60</ele>
        <time>2021-11-02T08:48:15+01:00</time>
      </trkpt>
      <trkpt lat="49.66843" lon="3.29602">
        <ele>57</ele>
        <time>2021-11-02T08:48:20+01:00</time>
      </trkpt>
      <trkpt lat="49.66748" lon="3.29718">
        <ele>57</ele>
        <time>2021-11-02T08:48:25+01:00</time>
      </trkpt>
      <trkpt lat="49.66707" lon="3.29658">
        <ele>58</ele>
        <time>2021-11-02T08:48:30+01:00</time>
      </trkpt>
      <trkpt lat="49.66432" lon="3.29816">
        <ele>58</ele>
        <time>2021-11-02T08:48:35+01:00</time>
      </trkpt>
      <trkpt lat="49.66246" lon="3.29855">
        <ele>57</ele>
        <time>2021-11-02T08:48:40+01:00</time>
      </trkpt>
      <trkpt lat="49.66136" lon="3.29827">
        <ele>57</ele>
        <time>2021-11-02T08:48:45+01:00</time>
      </trkpt>
      <trkpt lat="49.66027" lon="3.2982">
        <ele>58</ele>
        <time>2021-11-02T08:48:50+01:00</time>
      </trkpt>
      <trkpt lat="49.65764" lon="3.29768">
        <ele>54</ele>
        <time>2021-11-02T08:48:55+01:00</time>
      </trkpt>
      <trkpt lat="49.65779" lon="3.29517">
        <ele>55</ele>
        <time>2021-11-02T08:49:00+01:00</time>
      </trkpt>
      <trkpt lat="49.65852" lon="3.29514">
        <ele>56</ele>
        <time>2021-11-02T08:49:05+01:00</time>
      </trkpt>
      <trkpt lat="49.65837" lon="3.29483">
        <ele>56</ele>
        <time>2021-11-02T08:49:10+01:00</time>
      </trkpt>
      <trkpt lat="49.65789" lon="3.29328">
        <ele>55</ele>
        <time>2021-11-02T08:49:15+01:00</time>
      </trkpt>
      <trkpt lat="49.65696" lon="3.29057">
        <ele>53</ele>
        <time>2021-11-02T08:49:20+01:00</time>
      </trkpt>
      <trkpt lat="49.65716" lon="3.28951">
        <ele>52</ele>
        <time>2021-11-02T08:49:25+01:00</time>
      </trkpt>
      <trkpt lat="49.65703" lon="3.28861">
        <ele>52</ele>
        <time>2021-11-02T08:49:30+01:00</time>
      </trkpt>
    </trkseg>
  </trk>
</gpx>